Time;durP1;ratioP1;P1;durP2;ratioP2;P2;SDS_P1;SDS_P2;PMS_P1;PMS_P2;Temp;Humidity;BMP_temperature;BMP_pressure;BME280_temperature;BME280_humidity;BME280_pressure;Samples;Min_cycle;Max_cycle;Signal;HPM_P1;HPM_P2
2024/02/25 00:01:30;;;;;;;16.52;9.13;;;8.50;99.90;;;;;;4900838;29;20063;-75
2024/02/25 00:03:55;;;;;;;11.00;9.30;;;8.50;99.90;;;;;;4906557;29;20452;-75
2024/02/25 00:06:21;;;;;;;13.23;9.68;;;8.50;99.90;;;;;;4892733;29;20394;-76
2024/02/25 00:08:47;;;;;;;18.05;9.73;;;8.50;99.90;;;;;;4897662;29;20029;-75
2024/02/25 00:11:12;;;;;;;12.10;8.85;;;8.50;99.90;;;;;;4909189;29;20649;-76
2024/02/25 00:13:38;;;;;;;14.27;9.18;;;8.50;99.90;;;;;;4904812;29;20453;-76
2024/02/25 00:16:04;;;;;;;18.10;9.32;;;8.50;99.90;;;;;;4906941;29;20028;-76
2024/02/25 00:18:30;;;;;;;13.70;8.32;;;8.50;99.90;;;;;;4909706;29;20171;-76
2024/02/25 00:20:55;;;;;;;11.88;8.10;;;8.50;99.90;;;;;;4898578;29;20119;-76
2024/02/25 00:23:21;;;;;;;11.35;7.70;;;8.40;99.90;;;;;;4907856;29;20395;-76
2024/02/25 00:25:47;;;;;;;14.02;8.48;;;8.40;99.90;;;;;;4914348;29;20032;-75
2024/02/25 00:28:13;;;;;;;8.75;7.20;;;8.40;99.90;;;;;;4899497;29;20618;-75
2024/02/25 00:30:38;;;;;;;7.47;6.47;;;8.40;99.90;;;;;;4897107;29;20040;-76
2024/02/25 00:33:04;;;;;;;11.95;7.47;;;8.40;99.90;;;;;;4908548;29;20119;-76
2024/02/25 00:35:30;;;;;;;10.65;6.53;;;8.40;99.90;;;;;;4906182;29;20080;-76
2024/02/25 00:37:56;;;;;;;10.82;6.90;;;8.50;99.90;;;;;;4909278;29;20028;-75
2024/02/25 00:40:21;;;;;;;8.77;7.30;;;8.40;99.90;;;;;;4896796;29;20031;-76
2024/02/25 00:42:47;;;;;;;12.55;6.97;;;8.40;99.90;;;;;;4905541;29;20048;-76
2024/02/25 00:45:13;;;;;;;9.32;6.43;;;8.40;99.90;;;;;;4908556;29;20031;-75
2024/02/25 00:47:38;;;;;;;6.97;5.63;;;8.50;99.90;;;;;;4908572;29;20076;-75
2024/02/25 00:50:07;;;;;;;11.10;6.72;;;8.50;99.90;;;;;;4911728;29;20029;-75
2024/02/25 00:52:34;;;;;;;14.35;7.45;;;8.40;99.90;;;;;;4907127;29;20032;-75
2024/02/25 00:55:00;;;;;;;7.88;6.18;;;8.50;99.90;;;;;;4898759;29;20380;-76
2024/02/25 00:57:26;;;;;;;10.13;6.47;;;8.50;99.90;;;;;;4909208;29;20360;-75
2024/02/25 00:59:52;;;;;;;9.70;6.03;;;8.40;99.90;;;;;;4906111;29;20088;-75
2024/02/25 01:02:17;;;;;;;8.90;5.35;;;8.40;99.90;;;;;;4908230;29;20076;-75
2024/02/25 01:04:43;;;;;;;7.13;5.32;;;8.40;99.90;;;;;;4905599;29;20032;-76
2024/02/25 01:07:09;;;;;;;6.90;5.57;;;8.50;99.90;;;;;;4908502;29;20040;-75
2024/02/25 01:09:34;;;;;;;6.63;5.00;;;8.40;99.90;;;;;;4906069;29;20176;-76
2024/02/25 01:12:00;;;;;;;6.32;5.00;;;8.50;99.90;;;;;;4910211;29;20033;-75
2024/02/25 01:14:26;;;;;;;10.13;5.13;;;8.40;99.90;;;;;;4908036;29;20044;-75
2024/02/25 01:16:51;;;;;;;9.10;5.82;;;8.40;99.90;;;;;;4892008;29;20079;-76
2024/02/25 01:19:17;;;;;;;9.38;5.25;;;8.50;99.90;;;;;;4897878;29;20372;-76
2024/02/25 01:21:43;;;;;;;7.28;5.30;;;8.50;99.90;;;;;;4906252;29;20503;-76
2024/02/25 01:24:09;;;;;;;10.68;5.65;;;8.50;99.90;;;;;;4897384;29;20118;-76
2024/02/25 01:26:40;;;;;;;6.10;5.15;;;8.50;99.90;;;;;;4904756;29;20495;-75
2024/02/25 01:29:07;;;;;;;6.30;4.93;;;8.50;99.90;;;;;;4890645;29;20557;-76
2024/02/25 01:31:43;;;;;;;6.93;4.93;;;8.40;99.90;;;;;;4904855;29;20029;-76
2024/02/25 01:34:10;;;;;;;6.65;4.82;;;8.40;99.90;;;;;;4905858;29;20032;-76
2024/02/25 01:36:36;;;;;;;8.38;5.45;;;8.40;99.90;;;;;;4906747;29;20102;-76
2024/02/25 01:39:03;;;;;;;10.07;6.72;;;8.30;99.90;;;;;;4906713;29;20081;-76
2024/02/25 01:41:29;;;;;;;7.50;5.82;;;8.30;99.90;;;;;;4896155;29;20028;-76
2024/02/25 01:43:54;;;;;;;9.50;6.63;;;8.20;99.90;;;;;;4891212;29;20554;-76
2024/02/25 01:46:20;;;;;;;11.02;6.78;;;8.20;99.90;;;;;;4907515;29;20547;-76
2024/02/25 01:48:50;;;;;;;8.27;5.93;;;8.20;99.90;;;;;;4902564;29;20428;-76
2024/02/25 01:51:19;;;;;;;8.50;5.50;;;8.20;99.90;;;;;;4904663;29;20017;-76
2024/02/25 01:53:48;;;;;;;7.53;5.55;;;8.20;99.90;;;;;;4907134;29;20036;-76
2024/02/25 01:56:14;;;;;;;7.60;5.50;;;8.20;99.90;;;;;;4889032;29;20262;-76
2024/02/25 01:58:40;;;;;;;9.65;5.50;;;8.20;99.90;;;;;;4899624;29;20056;-76
2024/02/25 02:01:06;;;;;;;6.90;5.25;;;8.20;99.90;;;;;;4905682;29;20028;-76
2024/02/25 02:03:32;;;;;;;6.35;5.25;;;8.20;99.90;;;;;;4890005;29;20051;-76
2024/02/25 02:05:58;;;;;;;7.07;5.78;;;8.10;99.90;;;;;;4904933;29;20487;-76
2024/02/25 02:08:24;;;;;;;8.13;5.95;;;8.10;99.90;;;;;;4907311;29;20562;-76
2024/02/25 02:10:50;;;;;;;8.70;5.25;;;8.10;99.90;;;;;;4904904;29;20036;-76
2024/02/25 02:13:19;;;;;;;8.02;5.47;;;8.10;99.90;;;;;;4907799;29;20032;-76
2024/02/25 02:15:44;;;;;;;8.50;5.63;;;8.10;99.90;;;;;;4904736;29;20036;-76
2024/02/25 02:18:12;;;;;;;9.10;5.88;;;8.10;99.90;;;;;;4908557;29;20430;-76
2024/02/25 02:20:38;;;;;;;8.65;5.47;;;8.10;99.90;;;;;;4888546;29;20028;-76
2024/02/25 02:23:03;;;;;;;8.18;5.63;;;8.00;99.90;;;;;;4905870;29;20039;-76
2024/02/25 02:25:29;;;;;;;11.45;6.07;;;8.10;99.90;;;;;;4906082;29;20029;-76
2024/02/25 02:27:55;;;;;;;13.02;5.90;;;8.10;99.90;;;;;;4904815;29;20122;-76
2024/02/25 02:30:21;;;;;;;9.63;5.90;;;8.10;99.90;;;;;;4907079;29;20032;-76
2024/02/25 02:32:47;;;;;;;8.07;4.97;;;8.10;99.90;;;;;;4906838;29;20028;-76
2024/02/25 02:35:12;;;;;;;8.18;5.75;;;8.10;99.90;;;;;;4904477;29;20025;-76
2024/02/25 02:37:38;;;;;;;10.25;5.47;;;8.10;99.90;;;;;;4907180;29;20034;-76
2024/02/25 02:40:04;;;;;;;11.68;6.22;;;8.10;99.90;;;;;;4897999;29;20032;-76
2024/02/25 02:42:31;;;;;;;9.23;5.43;;;8.10;99.90;;;;;;4894042;29;20372;-76
2024/02/25 02:44:58;;;;;;;6.47;5.13;;;8.10;99.90;;;;;;4903335;29;20032;-76
2024/02/25 02:47:27;;;;;;;8.75;4.82;;;8.10;99.90;;;;;;4910853;29;20024;-76
2024/02/25 02:49:53;;;;;;;8.82;5.05;;;8.00;99.90;;;;;;4894555;29;20035;-76
2024/02/25 02:52:19;;;;;;;8.38;5.05;;;8.00;99.90;;;;;;4913493;29;20028;-76
2024/02/25 02:54:45;;;;;;;5.65;4.97;;;7.90;99.90;;;;;;4897136;29;20032;-76
2024/02/25 02:57:11;;;;;;;7.43;5.45;;;7.90;99.90;;;;;;4912372;29;20042;-76
2024/02/25 02:59:36;;;;;;;8.77;5.30;;;7.90;99.90;;;;;;4896653;29;20502;-76
2024/02/25 03:02:02;;;;;;;6.68;5.57;;;7.90;99.90;;;;;;4895648;29;20524;-76
2024/02/25 03:04:28;;;;;;;7.95;5.80;;;7.90;99.90;;;;;;4912469;29;20229;-76
2024/02/25 03:06:55;;;;;;;10.55;4.70;;;7.90;99.90;;;;;;4894485;29;20495;-75
2024/02/25 03:09:24;;;;;;;9.75;5.03;;;7.90;99.90;;;;;;4912623;29;20095;-76
2024/02/25 03:11:50;;;;;;;8.02;5.07;;;7.90;99.90;;;;;;4912616;29;20024;-76
2024/02/25 03:14:17;;;;;;;5.93;4.63;;;7.80;99.90;;;;;;4913097;29;20071;-76
2024/02/25 03:16:43;;;;;;;6.30;4.70;;;7.80;99.90;;;;;;4898940;29;20139;-76
2024/02/25 03:19:08;;;;;;;8.25;5.25;;;7.80;99.90;;;;;;4897063;29;20435;-76
2024/02/25 03:21:43;;;;;;;5.68;4.28;;;7.70;99.90;;;;;;4912748;29;20032;-76
2024/02/25 03:24:10;;;;;;;11.18;4.93;;;7.70;99.90;;;;;;4893135;29;20127;-76
2024/02/25 03:26:36;;;;;;;9.00;4.53;;;7.70;99.90;;;;;;4895892;29;20036;-76
2024/02/25 03:29:03;;;;;;;9.05;5.43;;;7.60;99.90;;;;;;4912966;29;20028;-76
2024/02/25 03:31:29;;;;;;;8.13;4.68;;;7.60;99.90;;;;;;4910917;29;20028;-76
2024/02/25 03:33:54;;;;;;;6.43;4.93;;;7.60;99.90;;;;;;4909127;29;20031;-76
2024/02/25 03:36:20;;;;;;;8.65;5.47;;;7.60;99.90;;;;;;4896056;29;20027;-76
2024/02/25 03:38:46;;;;;;;7.10;5.03;;;7.60;99.90;;;;;;4911112;29;20110;-76
2024/02/25 03:41:11;;;;;;;6.65;4.82;;;7.60;99.90;;;;;;4908604;29;20554;-76
2024/02/25 03:43:37;;;;;;;6.10;4.75;;;7.60;99.90;;;;;;4906916;29;20126;-76
2024/02/25 03:46:05;;;;;;;7.60;4.72;;;7.60;99.90;;;;;;4901051;29;20067;-76
2024/02/25 03:48:31;;;;;;;8.32;4.30;;;7.50;99.90;;;;;;4897761;29;20399;-76
2024/02/25 03:50:56;;;;;;;8.32;4.65;;;7.60;99.90;;;;;;4906539;29;20036;-76
2024/02/25 03:53:22;;;;;;;4.88;4.35;;;7.50;99.90;;;;;;4910595;29;20039;-76
2024/02/25 03:55:48;;;;;;;5.50;4.63;;;7.50;99.90;;;;;;4907233;29;20063;-76
2024/02/25 03:58:13;;;;;;;10.60;4.68;;;7.50;99.90;;;;;;4909590;29;20039;-76
2024/02/25 04:00:39;;;;;;;7.72;4.50;;;7.50;99.90;;;;;;4890684;29;20498;-76
2024/02/25 04:03:05;;;;;;;7.68;5.03;;;7.50;99.90;;;;;;4905743;29;20025;-76
2024/02/25 04:05:30;;;;;;;7.75;4.82;;;7.50;99.90;;;;;;4908786;29;20032;-75
2024/02/25 04:07:56;;;;;;;7.03;4.38;;;7.50;99.90;;;;;;4900407;29;20033;-75
2024/02/25 04:10:25;;;;;;;9.30;4.45;;;7.50;99.90;;;;;;4900562;29;20056;-76
2024/02/25 04:12:51;;;;;;;6.90;4.28;;;7.50;99.90;;;;;;4901400;29;20116;-76
2024/02/25 04:15:16;;;;;;;8.85;4.35;;;7.50;99.90;;;;;;4907923;29;20033;-76
2024/02/25 04:17:42;;;;;;;10.23;4.53;;;7.50;99.90;;;;;;4909614;29;20107;-76
2024/02/25 04:20:08;;;;;;;9.02;4.10;;;7.50;99.90;;;;;;4895198;29;20071;-76
2024/02/25 04:22:34;;;;;;;9.15;4.10;;;7.50;99.90;;;;;;4909954;29;20119;-76
2024/02/25 04:24:59;;;;;;;5.20;3.90;;;7.50;99.90;;;;;;4902934;29;20131;-76
2024/02/25 04:27:25;;;;;;;9.68;4.60;;;7.50;99.90;;;;;;4910124;29;20028;-76
2024/02/25 04:29:51;;;;;;;7.10;4.43;;;7.40;99.90;;;;;;4912779;29;20387;-75
2024/02/25 04:32:20;;;;;;;4.43;3.90;;;7.50;99.90;;;;;;4898521;29;20056;-76
2024/02/25 04:34:49;;;;;;;8.30;4.05;;;7.50;99.90;;;;;;4906240;29;20479;-76
2024/02/25 04:37:14;;;;;;;5.82;4.28;;;7.50;99.90;;;;;;4899787;29;20172;-75
2024/02/25 04:39:41;;;;;;;7.07;4.22;;;7.50;99.90;;;;;;4903051;29;20111;-76
2024/02/25 04:42:07;;;;;;;6.50;3.95;;;7.50;99.90;;;;;;4904655;29;20483;-76
2024/02/25 04:44:33;;;;;;;6.13;4.25;;;7.50;99.90;;;;;;4905672;29;20032;-76
2024/02/25 04:46:59;;;;;;;7.13;3.90;;;7.50;99.90;;;;;;4915166;29;20368;-76
2024/02/25 04:49:25;;;;;;;8.50;4.85;;;7.50;99.90;;;;;;4905904;29;20391;-75
2024/02/25 04:51:51;;;;;;;8.70;4.55;;;7.50;99.90;;;;;;4896712;29;20020;-76
2024/02/25 04:54:16;;;;;;;8.50;4.32;;;7.50;99.90;;;;;;4908323;29;20028;-76
2024/02/25 04:56:43;;;;;;;7.18;4.22;;;7.50;99.90;;;;;;4906736;29;20544;-76
2024/02/25 04:59:09;;;;;;;7.20;3.88;;;7.50;99.90;;;;;;4907783;29;20132;-76
2024/02/25 05:01:35;;;;;;;7.38;3.88;;;7.50;99.90;;;;;;4890261;29;20029;-76
2024/02/25 05:04:01;;;;;;;5.70;4.30;;;7.50;99.90;;;;;;4899745;29;20095;-76
2024/02/25 05:06:26;;;;;;;6.10;4.07;;;7.50;99.90;;;;;;4899101;29;20021;-76
2024/02/25 05:08:52;;;;;;;6.53;4.45;;;7.50;99.90;;;;;;4899153;29;20036;-76
2024/02/25 05:11:17;;;;;;;5.82;4.13;;;7.60;99.90;;;;;;4900269;29;20036;-76
2024/02/25 05:13:44;;;;;;;7.97;4.43;;;7.50;99.90;;;;;;4907211;29;20071;-76
2024/02/25 05:16:11;;;;;;;7.07;4.20;;;7.60;99.90;;;;;;4905151;29;20051;-76
2024/02/25 05:18:38;;;;;;;6.30;3.65;;;7.60;99.90;;;;;;4908795;29;20048;-76
2024/02/25 05:21:04;;;;;;;7.70;4.13;;;7.70;99.90;;;;;;4908009;29;20084;-76
2024/02/25 05:23:32;;;;;;;7.78;4.15;;;7.70;99.90;;;;;;4904922;29;20036;-76
2024/02/25 05:25:58;;;;;;;7.40;3.78;;;7.70;99.90;;;;;;4889698;29;20127;-76
2024/02/25 05:28:24;;;;;;;5.43;3.83;;;7.70;99.90;;;;;;4897366;29;20123;-76
2024/02/25 05:30:50;;;;;;;16.45;4.78;;;7.70;99.90;;;;;;4907078;29;20372;-76
2024/02/25 05:33:16;;;;;;;4.72;3.65;;;7.70;99.90;;;;;;4905145;29;20111;-76
2024/02/25 05:35:41;;;;;;;7.10;4.47;;;7.70;99.90;;;;;;4905936;29;20372;-76
2024/02/25 05:38:07;;;;;;;5.57;4.30;;;7.70;99.90;;;;;;4906799;29;20083;-76
2024/02/25 05:40:33;;;;;;;6.35;4.38;;;7.70;99.90;;;;;;4905313;29;20395;-76
2024/02/25 05:42:58;;;;;;;7.70;4.18;;;7.70;99.90;;;;;;4904627;29;20404;-76
2024/02/25 05:45:24;;;;;;;7.75;4.10;;;7.80;99.90;;;;;;4891236;29;20036;-76
2024/02/25 05:47:50;;;;;;;4.80;4.00;;;7.80;99.90;;;;;;4908662;29;20021;-76
2024/02/25 05:50:15;;;;;;;10.13;4.03;;;7.80;99.90;;;;;;4907512;29;20039;-76
2024/02/25 05:52:42;;;;;;;4.95;4.15;;;7.70;99.90;;;;;;4905364;29;20141;-76
2024/02/25 05:55:08;;;;;;;6.82;4.22;;;7.80;99.90;;;;;;4898329;29;20135;-76
2024/02/25 05:57:34;;;;;;;8.27;4.47;;;7.80;99.90;;;;;;4908176;29;20056;-76
2024/02/25 06:00:00;;;;;;;7.43;3.80;;;7.80;99.90;;;;;;4896638;29;20403;-76
2024/02/25 06:02:26;;;;;;;7.65;4.13;;;7.80;99.90;;;;;;4889722;29;20487;-76
2024/02/25 06:04:51;;;;;;;9.00;4.10;;;7.80;99.90;;;;;;4905785;29;20034;-75
2024/02/25 06:07:17;;;;;;;5.32;3.63;;;7.80;99.90;;;;;;4890146;29;20099;-76
2024/02/25 06:09:43;;;;;;;8.57;3.53;;;7.80;99.90;;;;;;4898296;29;20032;-76
2024/02/25 06:12:12;;;;;;;6.20;3.90;;;7.80;99.90;;;;;;4904314;29;20513;-75
2024/02/25 06:14:38;;;;;;;5.45;3.85;;;7.80;99.90;;;;;;4904372;29;20116;-76
2024/02/25 06:17:04;;;;;;;4.32;3.47;;;7.80;99.90;;;;;;4908499;29;20091;-76
2024/02/25 06:19:29;;;;;;;6.32;3.55;;;7.80;99.90;;;;;;4904799;29;20036;-75
2024/02/25 06:21:55;;;;;;;5.18;3.70;;;7.80;99.90;;;;;;4906826;29;20028;-76
2024/02/25 06:24:21;;;;;;;8.07;3.70;;;7.80;99.90;;;;;;4905254;29;20108;-76
2024/02/25 06:26:46;;;;;;;5.60;3.60;;;7.80;99.90;;;;;;4906201;29;20031;-76
2024/02/25 06:29:13;;;;;;;9.20;3.72;;;7.80;99.90;;;;;;4905704;29;20045;-75
2024/02/25 06:31:38;;;;;;;9.30;4.40;;;7.80;99.90;;;;;;4895962;29;20028;-76
2024/02/25 06:34:04;;;;;;;8.43;4.30;;;7.80;99.90;;;;;;4897568;29;20032;-76
2024/02/25 06:36:30;;;;;;;8.35;3.88;;;7.80;99.90;;;;;;4904942;29;20021;-76
2024/02/25 06:38:57;;;;;;;10.60;4.10;;;7.80;99.90;;;;;;4905642;29;20446;-76
2024/02/25 06:41:23;;;;;;;9.95;4.25;;;7.90;99.90;;;;;;4903982;29;20028;-76
2024/02/25 06:43:52;;;;;;;6.75;3.78;;;7.90;99.90;;;;;;4912693;29;20092;-76
2024/02/25 06:46:18;;;;;;;7.20;3.75;;;7.90;99.90;;;;;;4904551;29;20262;-76
2024/02/25 06:48:44;;;;;;;10.60;3.97;;;8.00;99.90;;;;;;4895861;29;20321;-76
2024/02/25 06:51:26;;;;;;;8.18;3.85;;;7.90;99.90;;;;;;4898020;29;20051;-76
2024/02/25 06:53:52;;;;;;;6.10;3.85;;;8.00;99.90;;;;;;4903808;29;20501;-76
2024/02/25 06:56:18;;;;;;;4.32;3.83;;;8.00;99.90;;;;;;4887030;29;20372;-76
2024/02/25 06:58:44;;;;;;;5.95;3.72;;;8.00;99.90;;;;;;4906872;29;20084;-76
2024/02/25 07:01:12;;;;;;;4.38;3.55;;;8.00;99.90;;;;;;4887520;29;20025;-76
2024/02/25 07:03:40;;;;;;;7.68;3.90;;;8.00;99.90;;;;;;4896550;29;20028;-76
2024/02/25 07:06:08;;;;;;;7.18;3.80;;;8.00;99.90;;;;;;4905593;29;20033;-76
2024/02/25 07:08:34;;;;;;;8.73;3.88;;;8.00;99.90;;;;;;4904663;29;20033;-76
2024/02/25 07:11:00;;;;;;;4.93;3.80;;;8.10;99.90;;;;;;4906296;29;20031;-76
2024/02/25 07:13:25;;;;;;;6.07;3.67;;;8.10;99.90;;;;;;4907419;29;20107;-76
2024/02/25 07:15:51;;;;;;;5.82;3.75;;;8.10;99.90;;;;;;4897028;29;20028;-76
2024/02/25 07:18:17;;;;;;;7.13;3.95;;;8.10;99.90;;;;;;4919504;29;20056;-76
2024/02/25 07:20:42;;;;;;;4.65;3.70;;;8.10;99.90;;;;;;4907111;29;20031;-76
2024/02/25 07:23:08;;;;;;;5.57;3.55;;;8.20;99.90;;;;;;4910317;29;20062;-75
2024/02/25 07:25:34;;;;;;;6.53;3.55;;;8.20;99.90;;;;;;4907820;29;20024;-75
2024/02/25 07:28:00;;;;;;;8.52;4.35;;;8.20;99.90;;;;;;4909722;29;20027;-75
2024/02/25 07:30:25;;;;;;;7.25;4.20;;;8.20;99.90;;;;;;4908183;29;20020;-75
2024/02/25 07:32:51;;;;;;;6.28;4.32;;;8.30;99.90;;;;;;4901365;29;20024;-75
2024/02/25 07:35:17;;;;;;;9.98;4.32;;;8.30;99.90;;;;;;4908868;29;20032;-75
2024/02/25 07:37:42;;;;;;;9.50;4.93;;;8.30;99.90;;;;;;4908759;29;20101;-76
2024/02/25 07:40:09;;;;;;;6.05;4.20;;;8.30;99.90;;;;;;4898680;29;20032;-76
2024/02/25 07:42:35;;;;;;;8.07;4.03;;;8.40;99.90;;;;;;4905309;29;20029;-76
2024/02/25 07:45:01;;;;;;;8.07;4.22;;;8.40;99.90;;;;;;4892653;29;20028;-75
2024/02/25 07:47:26;;;;;;;6.43;4.50;;;8.50;99.90;;;;;;4911918;29;20137;-75
2024/02/25 07:49:52;;;;;;;6.68;4.43;;;8.50;99.90;;;;;;4897602;29;20495;-76
2024/02/25 07:52:18;;;;;;;5.13;4.03;;;8.50;99.90;;;;;;4890122;29;20435;-75
2024/02/25 07:54:43;;;;;;;13.65;5.43;;;8.60;99.90;;;;;;4900564;29;20028;-76
2024/02/25 07:57:09;;;;;;;7.95;4.75;;;8.60;99.90;;;;;;4907003;29;20110;-75
2024/02/25 07:59:35;;;;;;;7.97;4.55;;;8.70;99.90;;;;;;4909407;29;20368;-76
2024/02/25 08:02:00;;;;;;;9.35;5.32;;;8.70;99.90;;;;;;4907401;29;20148;-76
2024/02/25 08:04:26;;;;;;;6.90;4.72;;;8.70;99.90;;;;;;4908832;29;20024;-76
2024/02/25 08:06:52;;;;;;;6.72;4.60;;;8.80;99.90;;;;;;4911206;29;20032;-75
2024/02/25 08:09:17;;;;;;;5.20;4.70;;;8.80;99.90;;;;;;4908044;29;20107;-75
2024/02/25 08:11:43;;;;;;;7.55;4.80;;;8.90;99.90;;;;;;4894601;29;20028;-76
2024/02/25 08:14:09;;;;;;;8.32;4.32;;;8.90;99.90;;;;;;4908442;29;20036;-76
2024/02/25 08:16:37;;;;;;;6.25;5.07;;;9.00;99.90;;;;;;4908903;29;20395;-76
2024/02/25 08:19:02;;;;;;;5.13;4.47;;;9.00;99.90;;;;;;4909932;29;20072;-76
2024/02/25 08:21:28;;;;;;;8.30;4.75;;;9.00;99.90;;;;;;4897077;29;20428;-75
2024/02/25 08:23:54;;;;;;;5.97;4.57;;;9.10;99.90;;;;;;4908324;29;20075;-75
2024/02/25 08:26:19;;;;;;;11.15;5.53;;;9.10;99.90;;;;;;4904950;29;20064;-75
2024/02/25 08:28:45;;;;;;;6.38;5.07;;;9.20;99.90;;;;;;4897549;29;20043;-76
2024/02/25 08:31:11;;;;;;;7.95;5.03;;;9.20;99.90;;;;;;4908822;29;20048;-76
2024/02/25 08:33:38;;;;;;;9.00;5.40;;;9.20;99.90;;;;;;4905598;29;20028;-76
2024/02/25 08:36:04;;;;;;;12.98;5.43;;;9.20;99.90;;;;;;4898464;29;20437;-76
2024/02/25 08:38:30;;;;;;;11.95;6.20;;;9.30;99.90;;;;;;4907523;29;20071;-76
2024/02/25 08:40:56;;;;;;;11.57;5.68;;;9.30;99.90;;;;;;4908587;29;20402;-76
2024/02/25 08:43:22;;;;;;;7.68;5.82;;;9.40;99.90;;;;;;4905737;29;20025;-76
2024/02/25 08:45:47;;;;;;;7.10;5.47;;;9.40;99.90;;;;;;4906852;29;20598;-76
2024/02/25 08:48:13;;;;;;;10.48;7.13;;;9.50;99.90;;;;;;4899262;29;20024;-76
2024/02/25 08:50:39;;;;;;;20.27;8.45;;;9.50;99.90;;;;;;4905851;29;20467;-76
2024/02/25 08:53:04;;;;;;;10.85;7.97;;;9.60;99.90;;;;;;4905360;29;20396;-76
2024/02/25 08:55:30;;;;;;;19.17;8.57;;;9.70;99.90;;;;;;4909062;29;20392;-76
2024/02/25 08:57:56;;;;;;;10.55;8.27;;;9.80;99.90;;;;;;4909034;29;20471;-76
2024/02/25 09:00:22;;;;;;;12.75;8.77;;;9.90;99.90;;;;;;4896960;29;20527;-76
2024/02/25 09:02:48;;;;;;;10.00;8.02;;;9.90;99.90;;;;;;4908183;29;20040;-76
2024/02/25 09:05:13;;;;;;;15.23;9.20;;;9.90;99.90;;;;;;4906150;29;20033;-76
2024/02/25 09:07:39;;;;;;;13.95;8.15;;;10.00;99.90;;;;;;4907580;29;20036;-76
2024/02/25 09:10:05;;;;;;;12.02;8.30;;;10.00;99.90;;;;;;4905260;29;20039;-76
2024/02/25 09:12:33;;;;;;;8.00;6.65;;;10.00;99.90;;;;;;4893665;29;20020;-76
2024/02/25 09:14:58;;;;;;;12.50;7.95;;;10.00;99.90;;;;;;4907475;29;20415;-76
2024/02/25 09:17:24;;;;;;;13.50;6.80;;;10.00;99.90;;;;;;4896303;29;20044;-76
2024/02/25 09:19:50;;;;;;;11.50;7.10;;;10.10;99.90;;;;;;4899032;29;20048;-76
2024/02/25 09:22:16;;;;;;;12.93;7.47;;;10.10;99.90;;;;;;4905501;29;20451;-76
2024/02/25 09:24:44;;;;;;;10.32;6.93;;;10.20;99.90;;;;;;4891395;29;20028;-76
2024/02/25 09:27:10;;;;;;;11.50;6.57;;;10.20;99.90;;;;;;4913286;29;20554;-76
2024/02/25 09:29:42;;;;;;;9.95;5.82;;;10.20;99.90;;;;;;4898253;29;20032;-76
2024/02/25 09:32:08;;;;;;;9.45;5.40;;;10.20;99.90;;;;;;4887810;29;20087;-75
2024/02/25 09:34:33;;;;;;;14.05;5.93;;;10.30;99.90;;;;;;4906621;29;20491;-76
2024/02/25 09:36:59;;;;;;;8.13;6.03;;;10.30;99.90;;;;;;4906132;29;20427;-76
2024/02/25 09:39:24;;;;;;;8.35;4.50;;;10.40;99.90;;;;;;4906785;29;20408;-76
2024/02/25 09:41:52;;;;;;;7.88;5.28;;;10.40;99.90;;;;;;4903830;29;20072;-76
2024/02/25 09:44:21;;;;;;;9.75;5.63;;;10.40;99.90;;;;;;4909944;29;20031;-76
2024/02/25 09:46:48;;;;;;;10.20;4.95;;;10.50;99.90;;;;;;4907827;29;20035;-76
2024/02/25 09:49:15;;;;;;;9.25;5.65;;;10.60;99.90;;;;;;4907300;29;20028;-76
2024/02/25 09:51:42;;;;;;;9.82;4.80;;;10.50;99.90;;;;;;4905546;29;20021;-76
2024/02/25 09:54:07;;;;;;;12.45;4.15;;;10.70;99.90;;;;;;4906643;29;20027;-76
2024/02/25 09:56:33;;;;;;;6.80;4.65;;;10.70;99.90;;;;;;4905967;29;20395;-76
2024/02/25 09:58:59;;;;;;;8.45;4.88;;;10.70;99.90;;;;;;4906061;29;20510;-76
2024/02/25 10:01:25;;;;;;;8.85;4.80;;;10.70;99.90;;;;;;4905071;29;20028;-76
2024/02/25 10:03:51;;;;;;;9.07;5.07;;;10.80;99.90;;;;;;4895802;29;20479;-76
2024/02/25 10:06:16;;;;;;;7.93;4.18;;;10.90;99.90;;;;;;4905759;29;20118;-76
2024/02/25 10:08:53;;;;;;;11.60;4.47;;;10.80;80.60;;;;;;4904636;29;20499;-76
2024/02/25 10:11:19;;;;;;;7.82;4.53;;;10.90;94.20;;;;;;4907046;29;20035;-76
2024/02/25 10:13:47;;;;;;;8.02;4.50;;;10.90;99.90;;;;;;4902729;29;20020;-76
2024/02/25 10:16:20;;;;;;;9.40;3.72;;;11.00;93.90;;;;;;4896939;29;20036;-76
2024/02/25 10:18:50;;;;;;;5.63;4.03;;;11.00;58.80;;;;;;4887276;29;20502;-76
2024/02/25 10:21:16;;;;;;;7.30;3.60;;;11.00;94.80;;;;;;4888032;29;20103;-76
2024/02/25 10:23:42;;;;;;;4.55;3.40;;;11.20;99.90;;;;;;4897626;29;20039;-76
2024/02/25 10:26:12;;;;;;;5.65;3.65;;;11.30;99.00;;;;;;4904789;29;20119;-76
2024/02/25 10:28:38;;;;;;;5.30;3.13;;;11.40;91.30;;;;;;4905781;29;20055;-76
2024/02/25 10:31:08;;;;;;;7.25;3.65;;;11.40;94.00;;;;;;4905728;29;20476;-76
2024/02/25 10:33:34;;;;;;;6.55;3.20;;;11.40;96.80;;;;;;4895277;29;20048;-76
2024/02/25 10:36:08;;;;;;;4.70;3.30;;;11.50;59.30;;;;;;4906867;29;20495;-76
2024/02/25 10:38:36;;;;;;;4.38;3.88;;;11.50;82.00;;;;;;4904701;29;20029;-76
2024/02/25 10:41:02;;;;;;;3.47;2.58;;;11.50;78.20;;;;;;4896481;29;20024;-76
2024/02/25 10:43:29;;;;;;;3.35;2.90;;;11.50;52.30;;;;;;4903738;29;20487;-76
2024/02/25 10:45:59;;;;;;;3.90;2.80;;;11.60;44.80;;;;;;4905794;29;20036;-76
2024/02/25 10:48:27;;;;;;;3.78;2.10;;;11.60;65.30;;;;;;4894977;29;20037;-76
2024/02/25 10:50:53;;;;;;;4.25;2.10;;;11.70;40.60;;;;;;4892889;29;20060;-76
2024/02/25 10:53:24;;;;;;;3.55;1.92;;;11.70;38.40;;;;;;4916069;29;20024;-76
2024/02/25 10:55:51;;;;;;;4.40;2.00;;;11.70;1.00;;;;;;4891443;29;20507;-76
2024/02/25 10:58:19;;;;;;;6.63;5.05;;;11.80;1.00;;;;;;4911226;29;20099;-76
2024/02/25 11:00:48;;;;;;;7.05;3.55;;;11.90;1.00;;;;;;4909055;29;20108;-77
2024/02/25 11:03:14;;;;;;;1.98;1.42;;;11.90;1.00;;;;;;4909990;29;20028;-76
2024/02/25 11:05:43;;;;;;;1.48;1.38;;;11.80;1.00;;;;;;4913879;29;20043;-76
2024/02/25 11:08:09;;;;;;;1.80;1.02;;;11.70;1.00;;;;;;4914495;29;20051;-76
2024/02/25 11:10:37;;;;;;;2.92;2.40;;;11.70;1.00;;;;;;4899066;29;20024;-76
2024/02/25 11:13:03;;;;;;;3.95;1.40;;;11.90;1.00;;;;;;4900293;29;20031;-76
2024/02/25 11:15:32;;;;;;;2.28;1.35;;;11.90;1.00;;;;;;4916243;29;20031;-76
2024/02/25 11:18:00;;;;;;;3.17;2.13;;;12.00;1.00;;;;;;4913973;29;20091;-76
2024/02/25 11:20:28;;;;;;;3.67;1.40;;;12.00;1.00;;;;;;4900512;29;20115;-76
2024/02/25 11:22:55;;;;;;;2.72;1.20;;;12.00;99.90;;;;;;4907885;29;20053;-77
2024/02/25 11:25:27;;;;;;;0.90;0.90;;;12.10;99.90;;;;;;4893792;29;20185;-77
2024/02/25 11:28:13;;;;;;;2.67;1.55;;;12.10;99.90;;;;;;4915216;29;20032;-76
2024/02/25 11:30:52;;;;;;;1.75;1.35;;;12.20;99.90;;;;;;4898049;29;20648;-76
2024/02/25 11:33:35;;;;;;;1.10;0.95;;;12.20;1.00;;;;;;4908761;29;20027;-77
2024/02/25 11:36:05;;;;;;;1.90;1.42;;;12.30;1.00;;;;;;4907469;29;20506;-76
2024/02/25 11:38:32;;;;;;;2.30;2.10;;;12.40;99.90;;;;;;4901171;29;20036;-77
2024/02/25 11:40:59;;;;;;;3.47;1.70;;;12.30;99.90;;;;;;4900634;29;20278;-76
2024/02/25 11:43:25;;;;;;;2.30;1.40;;;12.40;1.00;;;;;;4906874;29;20049;-77
2024/02/25 11:45:51;;;;;;;2.35;1.50;;;12.50;1.00;;;;;;4907803;29;20399;-76
2024/02/25 11:48:16;;;;;;;2.45;1.75;;;12.60;1.00;;;;;;4910079;29;20028;-76
2024/02/25 11:50:42;;;;;;;3.28;1.77;;;12.70;1.00;;;;;;4909541;29;20093;-76
2024/02/25 11:53:08;;;;;;;7.03;1.88;;;12.70;1.00;;;;;;4910221;29;20480;-76
2024/02/25 11:55:35;;;;;;;1.38;1.27;;;12.60;99.90;;;;;;4908823;29;20051;-76
2024/02/25 11:58:01;;;;;;;2.45;1.77;;;12.60;99.90;;;;;;4906776;29;20025;-76
2024/02/25 12:00:29;;;;;;;3.58;1.40;;;12.60;99.90;;;;;;4899494;29;20083;-76
2024/02/25 12:02:56;;;;;;;1.80;1.38;;;12.70;1.00;;;;;;4906633;29;20028;-76
2024/02/25 12:05:21;;;;;;;1.85;1.13;;;12.90;1.00;;;;;;4905476;29;20028;-76
2024/02/25 12:07:57;;;;;;;1.85;0.90;;;13.00;99.90;;;;;;4909483;29;20447;-76
2024/02/25 12:10:24;;;;;;;1.30;1.00;;;13.00;99.90;;;;;;4905643;29;20039;-76
2024/02/25 12:12:54;;;;;;;8.80;5.05;;;13.10;99.90;;;;;;4889580;29;20128;-76
2024/02/25 12:15:24;;;;;;;5.15;3.55;;;13.20;99.90;;;;;;4908651;29;20055;-76
2024/02/25 12:17:50;;;;;;;1.80;0.90;;;13.10;99.90;;;;;;4909652;29;20052;-76
2024/02/25 12:20:19;;;;;;;3.90;2.35;;;13.20;99.90;;;;;;4898085;29;20549;-76
2024/02/25 12:22:45;;;;;;;1.90;1.27;;;13.10;99.90;;;;;;4908817;29;20046;-76
2024/02/25 12:25:18;;;;;;;2.13;1.20;;;13.20;99.90;;;;;;4896974;29;20036;-76
2024/02/25 12:27:45;;;;;;;1.55;1.10;;;13.20;99.90;;;;;;4889574;29;20029;-76
2024/02/25 12:30:12;;;;;;;1.30;1.00;;;13.30;99.90;;;;;;4898988;29;20036;-76
2024/02/25 12:32:38;;;;;;;1.52;0.77;;;13.40;99.90;;;;;;4905701;29;20274;-76
2024/02/25 12:35:05;;;;;;;2.20;0.98;;;13.40;99.90;;;;;;4907596;29;20033;-76
2024/02/25 12:37:31;;;;;;;1.20;0.60;;;13.40;99.90;;;;;;4890446;29;20055;-76
2024/02/25 12:39:57;;;;;;;0.60;0.60;;;13.50;28.90;;;;;;4908029;29;20059;-76
2024/02/25 12:42:23;;;;;;;1.35;0.70;;;13.50;57.30;;;;;;4895953;29;20028;-76
2024/02/25 12:44:49;;;;;;;3.00;0.73;;;13.50;1.00;;;;;;4906274;29;20435;-76
2024/02/25 12:47:15;;;;;;;0.80;0.52;;;13.60;21.40;;;;;;4912529;29;20028;-76
2024/02/25 12:49:46;;;;;;;0.95;0.60;;;13.50;71.20;;;;;;4896593;29;20567;-76